sensor_id;sensor_type;location;lat;lon;timestamp;P1;durP1;ratioP1;P2;durP2;ratioP2
19171;SDS011;9718;52.200;21.052;2022-10-31T00:00:57;49.47;;;29.03;;
19171;SDS011;9718;52.200;21.052;2022-10-31T00:03:37;55.20;;;27.87;;
19171;SDS011;9718;52.200;21.052;2022-10-31T00:06:04;48.77;;;25.73;;
19171;SDS011;9718;52.200;21.052;2022-10-31T00:08:31;45.27;;;26.33;;
19171;SDS011;9718;52.200;21.052;2022-10-31T00:10:58;44.50;;;25.10;;
19171;SDS011;9718;52.200;21.052;2022-10-31T00:13:25;44.53;;;26.67;;
19171;SDS011;9718;52.200;21.052;2022-10-31T00:15:52;43.67;;;24.97;;
19171;SDS011;9718;52.200;21.052;2022-10-31T00:18:19;47.43;;;26.00;;
19171;SDS011;9718;52.200;21.052;2022-10-31T00:20:46;42.97;;;25.20;;
19171;SDS011;9718;52.200;21.052;2022-10-31T00:23:13;45.13;;;26.50;;
19171;SDS011;9718;52.200;21.052;2022-10-31T00:25:40;46.00;;;26.37;;
19171;SDS011;9718;52.200;21.052;2022-10-31T00:28:08;50.10;;;27.07;;
19171;SDS011;9718;52.200;21.052;2022-10-31T00:30:38;51.27;;;27.70;;
19171;SDS011;9718;52.200;21.052;2022-10-31T00:33:05;49.93;;;28.10;;
19171;SDS011;9718;52.200;21.052;2022-10-31T00:35:32;48.27;;;25.63;;
19171;SDS011;9718;52.200;21.052;2022-10-31T00:37:59;51.43;;;27.50;;
19171;SDS011;9718;52.200;21.052;2022-10-31T00:40:26;44.80;;;25.07;;
19171;SDS011;9718;52.200;21.052;2022-10-31T00:42:53;48.77;;;26.03;;
19171;SDS011;9718;52.200;21.052;2022-10-31T00:45:20;48.13;;;26.00;;
19171;SDS011;9718;52.200;21.052;2022-10-31T00:47:47;44.27;;;24.27;;
19171;SDS011;9718;52.200;21.052;2022-10-31T00:50:14;42.73;;;25.87;;
19171;SDS011;9718;52.200;21.052;2022-10-31T00:52:41;44.80;;;25.47;;
19171;SDS011;9718;52.200;21.052;2022-10-31T00:55:08;44.93;;;25.87;;
19171;SDS011;9718;52.200;21.052;2022-10-31T00:57:35;43.03;;;24.67;;
19171;SDS011;9718;52.200;21.052;2022-10-31T01:00:02;48.97;;;25.03;;
19171;SDS011;9718;52.200;21.052;2022-10-31T01:02:30;40.63;;;24.37;;
19171;SDS011;9718;52.200;21.052;2022-10-31T01:04:57;45.73;;;24.10;;
19171;SDS011;9718;52.200;21.052;2022-10-31T01:07:24;43.90;;;24.60;;
19171;SDS011;9718;52.200;21.052;2022-10-31T01:09:51;46.40;;;24.97;;
19171;SDS011;9718;52.200;21.052;2022-10-31T01:12:18;46.97;;;24.60;;
19171;SDS011;9718;52.200;21.052;2022-10-31T01:14:45;47.10;;;24.23;;
19171;SDS011;9718;52.200;21.052;2022-10-31T01:17:12;41.00;;;24.90;;
19171;SDS011;9718;52.200;21.052;2022-10-31T01:19:40;41.53;;;23.70;;
19171;SDS011;9718;52.200;21.052;2022-10-31T01:22:07;44.00;;;23.77;;
19171;SDS011;9718;52.200;21.052;2022-10-31T01:24:34;41.37;;;23.33;;
19171;SDS011;9718;52.200;21.052;2022-10-31T01:27:01;41.67;;;22.97;;
19171;SDS011;9718;52.200;21.052;2022-10-31T01:29:28;42.60;;;24.77;;
19171;SDS011;9718;52.200;21.052;2022-10-31T01:31:55;41.63;;;23.10;;
19171;SDS011;9718;52.200;21.052;2022-10-31T01:34:22;44.20;;;24.77;;
19171;SDS011;9718;52.200;21.052;2022-10-31T01:36:49;44.47;;;23.77;;
19171;SDS011;9718;52.200;21.052;2022-10-31T01:39:17;40.13;;;23.50;;
19171;SDS011;9718;52.200;21.052;2022-10-31T01:41:50;43.13;;;23.87;;
19171;SDS011;9718;52.200;21.052;2022-10-31T01:46:49;36.50;;;21.37;;
19171;SDS011;9718;52.200;21.052;2022-10-31T01:52:22;48.77;;;24.60;;
19171;SDS011;9718;52.200;21.052;2022-10-31T01:54:57;80.27;;;27.60;;
19171;SDS011;9718;52.200;21.052;2022-10-31T01:57:31;62.93;;;24.90;;
19171;SDS011;9718;52.200;21.052;2022-10-31T02:00:01;69.17;;;27.10;;
19171;SDS011;9718;52.200;21.052;2022-10-31T02:02:32;57.47;;;26.47;;
19171;SDS011;9718;52.200;21.052;2022-10-31T02:05:00;67.43;;;28.23;;
19171;SDS011;9718;52.200;21.052;2022-10-31T02:07:42;53.73;;;26.30;;
19171;SDS011;9718;52.200;21.052;2022-10-31T02:10:14;51.03;;;26.43;;
19171;SDS011;9718;52.200;21.052;2022-10-31T02:12:41;51.77;;;25.53;;
19171;SDS011;9718;52.200;21.052;2022-10-31T02:15:10;53.43;;;26.57;;
19171;SDS011;9718;52.200;21.052;2022-10-31T02:17:37;50.80;;;25.33;;
19171;SDS011;9718;52.200;21.052;2022-10-31T02:28:35;48.70;;;27.30;;
19171;SDS011;9718;52.200;21.052;2022-10-31T02:33:44;47.47;;;25.67;;
19171;SDS011;9718;52.200;21.052;2022-10-31T02:36:36;52.37;;;27.70;;
19171;SDS011;9718;52.200;21.052;2022-10-31T02:42:08;98.70;;;30.70;;
19171;SDS011;9718;52.200;21.052;2022-10-31T02:47:19;60.63;;;29.67;;
19171;SDS011;9718;52.200;21.052;2022-10-31T02:49:57;49.80;;;27.33;;
19171;SDS011;9718;52.200;21.052;2022-10-31T02:52:34;57.70;;;29.30;;
19171;SDS011;9718;52.200;21.052;2022-10-31T02:55:12;58.40;;;29.43;;
19171;SDS011;9718;52.200;21.052;2022-10-31T02:57:48;44.50;;;25.83;;
19171;SDS011;9718;52.200;21.052;2022-10-31T03:00:19;48.43;;;26.70;;
19171;SDS011;9718;52.200;21.052;2022-10-31T03:10:57;50.57;;;26.43;;
19171;SDS011;9718;52.200;21.052;2022-10-31T03:19:10;50.57;;;27.80;;
19171;SDS011;9718;52.200;21.052;2022-10-31T03:21:46;53.47;;;27.33;;
19171;SDS011;9718;52.200;21.052;2022-10-31T03:24:16;58.73;;;30.97;;
19171;SDS011;9718;52.200;21.052;2022-10-31T03:26:47;62.40;;;32.73;;
19171;SDS011;9718;52.200;21.052;2022-10-31T03:29:20;64.40;;;32.40;;
19171;SDS011;9718;52.200;21.052;2022-10-31T03:31:55;50.87;;;29.97;;
19171;SDS011;9718;52.200;21.052;2022-10-31T03:34:25;51.53;;;29.57;;
19171;SDS011;9718;52.200;21.052;2022-10-31T03:36:55;52.27;;;28.43;;
19171;SDS011;9718;52.200;21.052;2022-10-31T03:39:25;50.77;;;27.13;;
19171;SDS011;9718;52.200;21.052;2022-10-31T03:41:54;51.73;;;27.93;;
19171;SDS011;9718;52.200;21.052;2022-10-31T03:44:43;52.53;;;27.87;;
19171;SDS011;9718;52.200;21.052;2022-10-31T03:47:32;53.40;;;28.63;;
19171;SDS011;9718;52.200;21.052;2022-10-31T03:50:01;53.60;;;26.90;;
19171;SDS011;9718;52.200;21.052;2022-10-31T03:55:28;58.00;;;30.17;;
19171;SDS011;9718;52.200;21.052;2022-10-31T03:58:34;54.80;;;28.43;;
19171;SDS011;9718;52.200;21.052;2022-10-31T04:01:06;56.93;;;29.37;;
19171;SDS011;9718;52.200;21.052;2022-10-31T04:03:36;49.63;;;27.93;;
19171;SDS011;9718;52.200;21.052;2022-10-31T04:06:06;48.93;;;27.87;;
19171;SDS011;9718;52.200;21.052;2022-10-31T04:08:40;55.03;;;28.47;;
19171;SDS011;9718;52.200;21.052;2022-10-31T04:11:11;46.67;;;27.10;;
19171;SDS011;9718;52.200;21.052;2022-10-31T04:13:40;50.50;;;27.67;;
19171;SDS011;9718;52.200;21.052;2022-10-31T04:16:09;51.97;;;28.57;;
19171;SDS011;9718;52.200;21.052;2022-10-31T04:18:42;51.40;;;27.60;;
19171;SDS011;9718;52.200;21.052;2022-10-31T04:21:10;50.27;;;27.37;;
19171;SDS011;9718;52.200;21.052;2022-10-31T04:23:37;46.30;;;26.83;;
19171;SDS011;9718;52.200;21.052;2022-10-31T04:26:04;48.67;;;28.43;;
19171;SDS011;9718;52.200;21.052;2022-10-31T04:28:31;47.50;;;26.20;;
19171;SDS011;9718;52.200;21.052;2022-10-31T04:30:59;47.30;;;26.20;;
19171;SDS011;9718;52.200;21.052;2022-10-31T04:33:27;52.60;;;28.13;;
19171;SDS011;9718;52.200;21.052;2022-10-31T04:35:54;48.80;;;26.80;;
19171;SDS011;9718;52.200;21.052;2022-10-31T04:38:21;50.93;;;26.70;;
19171;SDS011;9718;52.200;21.052;2022-10-31T04:40:48;45.13;;;25.70;;
19171;SDS011;9718;52.200;21.052;2022-10-31T04:43:15;44.23;;;26.20;;
19171;SDS011;9718;52.200;21.052;2022-10-31T04:45:42;53.67;;;27.93;;
19171;SDS011;9718;52.200;21.052;2022-10-31T04:48:09;45.53;;;25.50;;
19171;SDS011;9718;52.200;21.052;2022-10-31T04:50:36;50.20;;;25.93;;
19171;SDS011;9718;52.200;21.052;2022-10-31T04:53:04;61.00;;;29.97;;
19171;SDS011;9718;52.200;21.052;2022-10-31T04:55:30;105.57;;;40.20;;
19171;SDS011;9718;52.200;21.052;2022-10-31T04:57:58;170.57;;;56.17;;
19171;SDS011;9718;52.200;21.052;2022-10-31T05:00:25;166.67;;;51.73;;
19171;SDS011;9718;52.200;21.052;2022-10-31T05:02:54;78.23;;;30.50;;
19171;SDS011;9718;52.200;21.052;2022-10-31T05:05:23;63.40;;;30.53;;
19171;SDS011;9718;52.200;21.052;2022-10-31T05:07:52;106.33;;;40.43;;
19171;SDS011;9718;52.200;21.052;2022-10-31T05:10:20;72.73;;;33.57;;
19171;SDS011;9718;52.200;21.052;2022-10-31T05:12:51;168.10;;;50.90;;
19171;SDS011;9718;52.200;21.052;2022-10-31T05:15:23;143.53;;;44.33;;
19171;SDS011;9718;52.200;21.052;2022-10-31T05:17:52;97.87;;;35.80;;
19171;SDS011;9718;52.200;21.052;2022-10-31T05:20:21;84.83;;;33.00;;
19171;SDS011;9718;52.200;21.052;2022-10-31T05:22:51;80.50;;;35.10;;
19171;SDS011;9718;52.200;21.052;2022-10-31T05:25:19;79.83;;;36.70;;
19171;SDS011;9718;52.200;21.052;2022-10-31T05:27:48;65.10;;;33.30;;
19171;SDS011;9718;52.200;21.052;2022-10-31T05:30:17;73.97;;;34.57;;
19171;SDS011;9718;52.200;21.052;2022-10-31T05:32:49;75.00;;;35.07;;
19171;SDS011;9718;52.200;21.052;2022-10-31T05:35:18;96.13;;;44.07;;
19171;SDS011;9718;52.200;21.052;2022-10-31T05:37:49;72.30;;;35.93;;
19171;SDS011;9718;52.200;21.052;2022-10-31T05:40:16;81.13;;;38.33;;
19171;SDS011;9718;52.200;21.052;2022-10-31T05:42:45;79.47;;;38.83;;
19171;SDS011;9718;52.200;21.052;2022-10-31T05:45:13;85.77;;;38.80;;
19171;SDS011;9718;52.200;21.052;2022-10-31T05:47:42;72.73;;;36.53;;
19171;SDS011;9718;52.200;21.052;2022-10-31T05:50:16;90.03;;;38.73;;
19171;SDS011;9718;52.200;21.052;2022-10-31T05:52:44;79.60;;;37.10;;
19171;SDS011;9718;52.200;21.052;2022-10-31T05:55:11;82.57;;;38.27;;
19171;SDS011;9718;52.200;21.052;2022-10-31T06:00:33;121.07;;;42.60;;
19171;SDS011;9718;52.200;21.052;2022-10-31T06:03:06;105.87;;;38.50;;
19171;SDS011;9718;52.200;21.052;2022-10-31T06:05:34;104.43;;;38.30;;
19171;SDS011;9718;52.200;21.052;2022-10-31T06:08:01;100.50;;;35.00;;
19171;SDS011;9718;52.200;21.052;2022-10-31T06:10:29;73.07;;;32.93;;
19171;SDS011;9718;52.200;21.052;2022-10-31T06:12:56;73.67;;;32.33;;
19171;SDS011;9718;52.200;21.052;2022-10-31T06:15:41;69.50;;;33.13;;
19171;SDS011;9718;52.200;21.052;2022-10-31T06:21:26;78.13;;;34.07;;
19171;SDS011;9718;52.200;21.052;2022-10-31T06:23:54;84.43;;;36.17;;
19171;SDS011;9718;52.200;21.052;2022-10-31T06:26:21;91.33;;;33.83;;
19171;SDS011;9718;52.200;21.052;2022-10-31T06:28:48;75.87;;;32.87;;
19171;SDS011;9718;52.200;21.052;2022-10-31T06:31:15;75.20;;;32.53;;
19171;SDS011;9718;52.200;21.052;2022-10-31T06:40:15;98.60;;;27.63;;
19171;SDS011;9718;52.200;21.052;2022-10-31T06:42:43;78.00;;;28.37;;
19171;SDS011;9718;52.200;21.052;2022-10-31T06:45:11;85.10;;;27.23;;
19171;SDS011;9718;52.200;21.052;2022-10-31T06:47:39;63.67;;;24.27;;
19171;SDS011;9718;52.200;21.052;2022-10-31T07:38:58;31.00;;;16.30;;
19171;SDS011;9718;52.200;21.052;2022-10-31T07:41:25;30.13;;;16.07;;
19171;SDS011;9718;52.200;21.052;2022-10-31T07:43:53;44.60;;;16.67;;
19171;SDS011;9718;52.200;21.052;2022-10-31T07:46:21;43.50;;;17.57;;
19171;SDS011;9718;52.200;21.052;2022-10-31T07:48:48;44.77;;;19.00;;
19171;SDS011;9718;52.200;21.052;2022-10-31T07:51:16;38.80;;;17.33;;
19171;SDS011;9718;52.200;21.052;2022-10-31T07:53:43;41.97;;;18.03;;
19171;SDS011;9718;52.200;21.052;2022-10-31T07:56:10;35.87;;;16.43;;
19171;SDS011;9718;52.200;21.052;2022-10-31T07:58:37;37.07;;;16.97;;
19171;SDS011;9718;52.200;21.052;2022-10-31T08:01:05;32.77;;;16.93;;
19171;SDS011;9718;52.200;21.052;2022-10-31T08:03:32;34.10;;;15.40;;
19171;SDS011;9718;52.200;21.052;2022-10-31T08:05:59;36.60;;;14.77;;
19171;SDS011;9718;52.200;21.052;2022-10-31T08:08:27;83.10;;;16.03;;
19171;SDS011;9718;52.200;21.052;2022-10-31T08:11:00;41.40;;;13.77;;
19171;SDS011;9718;52.200;21.052;2022-10-31T08:13:27;47.23;;;13.93;;
19171;SDS011;9718;52.200;21.052;2022-10-31T08:15:54;38.03;;;14.57;;
19171;SDS011;9718;52.200;21.052;2022-10-31T08:18:23;38.67;;;15.37;;
19171;SDS011;9718;52.200;21.052;2022-10-31T08:20:50;29.07;;;14.93;;
19171;SDS011;9718;52.200;21.052;2022-10-31T08:23:17;44.63;;;13.97;;
19171;SDS011;9718;52.200;21.052;2022-10-31T08:25:45;25.67;;;12.83;;
19171;SDS011;9718;52.200;21.052;2022-10-31T08:28:14;50.57;;;14.73;;
19171;SDS011;9718;52.200;21.052;2022-10-31T08:30:42;30.43;;;12.90;;
19171;SDS011;9718;52.200;21.052;2022-10-31T08:33:10;22.83;;;13.17;;
19171;SDS011;9718;52.200;21.052;2022-10-31T08:35:39;26.73;;;14.40;;
19171;SDS011;9718;52.200;21.052;2022-10-31T08:38:07;33.43;;;13.97;;
19171;SDS011;9718;52.200;21.052;2022-10-31T08:40:36;22.40;;;13.43;;
19171;SDS011;9718;52.200;21.052;2022-10-31T08:43:05;24.00;;;12.07;;
19171;SDS011;9718;52.200;21.052;2022-10-31T08:45:35;29.97;;;13.40;;
19171;SDS011;9718;52.200;21.052;2022-10-31T08:48:03;29.87;;;13.07;;
19171;SDS011;9718;52.200;21.052;2022-10-31T08:50:33;24.37;;;14.20;;
19171;SDS011;9718;52.200;21.052;2022-10-31T08:53:06;28.77;;;13.80;;
19171;SDS011;9718;52.200;21.052;2022-10-31T08:55:36;26.27;;;13.93;;
19171;SDS011;9718;52.200;21.052;2022-10-31T08:58:05;25.30;;;14.27;;
19171;SDS011;9718;52.200;21.052;2022-10-31T09:00:34;28.03;;;14.90;;
19171;SDS011;9718;52.200;21.052;2022-10-31T09:03:03;27.80;;;15.10;;
19171;SDS011;9718;52.200;21.052;2022-10-31T09:05:32;26.33;;;15.67;;
19171;SDS011;9718;52.200;21.052;2022-10-31T09:08:01;30.70;;;14.83;;
19171;SDS011;9718;52.200;21.052;2022-10-31T09:10:31;38.07;;;22.20;;
19171;SDS011;9718;52.200;21.052;2022-10-31T09:13:00;26.20;;;15.70;;
19171;SDS011;9718;52.200;21.052;2022-10-31T09:15:34;26.80;;;15.17;;
19171;SDS011;9718;52.200;21.052;2022-10-31T09:18:02;24.70;;;14.93;;
19171;SDS011;9718;52.200;21.052;2022-10-31T09:20:31;29.03;;;15.70;;
19171;SDS011;9718;52.200;21.052;2022-10-31T09:23:03;27.33;;;15.17;;
19171;SDS011;9718;52.200;21.052;2022-10-31T09:25:33;27.33;;;14.67;;
19171;SDS011;9718;52.200;21.052;2022-10-31T09:28:03;26.43;;;16.13;;
19171;SDS011;9718;52.200;21.052;2022-10-31T09:30:33;25.80;;;15.63;;
19171;SDS011;9718;52.200;21.052;2022-10-31T09:33:05;30.63;;;17.47;;
19171;SDS011;9718;52.200;21.052;2022-10-31T09:35:34;27.93;;;16.67;;
19171;SDS011;9718;52.200;21.052;2022-10-31T09:38:05;29.57;;;17.23;;
19171;SDS011;9718;52.200;21.052;2022-10-31T09:40:41;30.13;;;17.40;;
19171;SDS011;9718;52.200;21.052;2022-10-31T09:43:37;31.30;;;17.73;;
19171;SDS011;9718;52.200;21.052;2022-10-31T09:49:02;31.43;;;19.17;;
19171;SDS011;9718;52.200;21.052;2022-10-31T09:51:53;33.80;;;19.80;;
19171;SDS011;9718;52.200;21.052;2022-10-31T09:57:28;29.90;;;18.80;;
19171;SDS011;9718;52.200;21.052;2022-10-31T09:59:59;29.27;;;18.87;;
19171;SDS011;9718;52.200;21.052;2022-10-31T10:05:11;33.70;;;18.30;;
19171;SDS011;9718;52.200;21.052;2022-10-31T10:08:00;31.40;;;18.83;;
19171;SDS011;9718;52.200;21.052;2022-10-31T10:15:59;28.03;;;16.43;;
19171;SDS011;9718;52.200;21.052;2022-10-31T10:18:32;23.80;;;15.47;;
19171;SDS011;9718;52.200;21.052;2022-10-31T10:21:24;26.27;;;16.10;;
19171;SDS011;9718;52.200;21.052;2022-10-31T10:24:04;25.73;;;15.63;;
19171;SDS011;9718;52.200;21.052;2022-10-31T10:26:48;26.20;;;14.57;;
19171;SDS011;9718;52.200;21.052;2022-10-31T10:29:38;22.33;;;14.57;;
19171;SDS011;9718;52.200;21.052;2022-10-31T10:32:20;23.37;;;14.93;;
19171;SDS011;9718;52.200;21.052;2022-10-31T10:34:58;24.53;;;13.63;;
19171;SDS011;9718;52.200;21.052;2022-10-31T10:37:46;18.77;;;12.33;;
19171;SDS011;9718;52.200;21.052;2022-10-31T10:40:16;20.17;;;12.47;;
19171;SDS011;9718;52.200;21.052;2022-10-31T10:45:55;19.23;;;12.00;;
19171;SDS011;9718;52.200;21.052;2022-10-31T10:58:05;29.60;;;17.97;;
19171;SDS011;9718;52.200;21.052;2022-10-31T11:00:43;22.50;;;11.77;;
19171;SDS011;9718;52.200;21.052;2022-10-31T11:03:16;17.13;;;11.43;;
19171;SDS011;9718;52.200;21.052;2022-10-31T11:05:55;17.73;;;11.80;;
19171;SDS011;9718;52.200;21.052;2022-10-31T11:13:46;20.77;;;12.50;;
19171;SDS011;9718;52.200;21.052;2022-10-31T11:16:27;18.87;;;12.13;;
19171;SDS011;9718;52.200;21.052;2022-10-31T11:21:47;19.73;;;12.13;;
19171;SDS011;9718;52.200;21.052;2022-10-31T11:24:20;18.83;;;11.70;;
19171;SDS011;9718;52.200;21.052;2022-10-31T11:26:50;24.43;;;12.67;;
19171;SDS011;9718;52.200;21.052;2022-10-31T11:29:23;18.50;;;11.77;;
19171;SDS011;9718;52.200;21.052;2022-10-31T11:31:52;25.57;;;12.53;;
19171;SDS011;9718;52.200;21.052;2022-10-31T11:34:32;22.43;;;12.87;;
19171;SDS011;9718;52.200;21.052;2022-10-31T11:37:09;20.70;;;11.90;;
19171;SDS011;9718;52.200;21.052;2022-10-31T11:39:41;19.77;;;11.60;;
19171;SDS011;9718;52.200;21.052;2022-10-31T11:42:11;22.80;;;12.60;;
19171;SDS011;9718;52.200;21.052;2022-10-31T11:44:41;31.77;;;18.70;;
19171;SDS011;9718;52.200;21.052;2022-10-31T11:47:11;19.93;;;12.97;;
19171;SDS011;9718;52.200;21.052;2022-10-31T11:49:45;21.73;;;12.77;;
19171;SDS011;9718;52.200;21.052;2022-10-31T11:52:17;20.63;;;12.63;;
19171;SDS011;9718;52.200;21.052;2022-10-31T11:55:01;19.03;;;11.57;;
19171;SDS011;9718;52.200;21.052;2022-10-31T11:57:51;22.37;;;10.83;;
19171;SDS011;9718;52.200;21.052;2022-10-31T12:00:25;17.87;;;12.03;;
19171;SDS011;9718;52.200;21.052;2022-10-31T12:06:23;20.60;;;13.00;;
19171;SDS011;9718;52.200;21.052;2022-10-31T12:08:56;20.30;;;11.90;;
19171;SDS011;9718;52.200;21.052;2022-10-31T12:14:26;20.70;;;13.10;;
19171;SDS011;9718;52.200;21.052;2022-10-31T12:22:43;21.27;;;11.93;;
19171;SDS011;9718;52.200;21.052;2022-10-31T12:28:08;22.23;;;11.73;;
19171;SDS011;9718;52.200;21.052;2022-10-31T12:49:31;20.63;;;11.40;;
19171;SDS011;9718;52.200;21.052;2022-10-31T12:58:14;21.20;;;11.80;;
19171;SDS011;9718;52.200;21.052;2022-10-31T13:01:02;20.80;;;11.50;;
19171;SDS011;9718;52.200;21.052;2022-10-31T13:03:39;23.80;;;11.97;;
19171;SDS011;9718;52.200;21.052;2022-10-31T13:06:22;21.60;;;11.23;;
19171;SDS011;9718;52.200;21.052;2022-10-31T13:08:56;19.87;;;10.53;;
19171;SDS011;9718;52.200;21.052;2022-10-31T13:30:30;25.97;;;15.13;;
19171;SDS011;9718;52.200;21.052;2022-10-31T13:35:51;28.17;;;15.53;;
19171;SDS011;9718;52.200;21.052;2022-10-31T13:38:49;28.37;;;15.90;;
19171;SDS011;9718;52.200;21.052;2022-10-31T13:44:27;27.00;;;14.57;;
19171;SDS011;9718;52.200;21.052;2022-10-31T13:47:03;24.83;;;14.40;;
19171;SDS011;9718;52.200;21.052;2022-10-31T13:49:46;28.33;;;14.73;;
19171;SDS011;9718;52.200;21.052;2022-10-31T13:52:22;30.67;;;15.77;;
19171;SDS011;9718;52.200;21.052;2022-10-31T13:54:51;33.80;;;16.77;;
19171;SDS011;9718;52.200;21.052;2022-10-31T14:02:51;27.53;;;15.60;;
19171;SDS011;9718;52.200;21.052;2022-10-31T14:05:25;28.47;;;15.07;;
19171;SDS011;9718;52.200;21.052;2022-10-31T14:07:54;29.27;;;16.03;;
19171;SDS011;9718;52.200;21.052;2022-10-31T14:13:08;30.23;;;16.53;;
19171;SDS011;9718;52.200;21.052;2022-10-31T14:15:52;28.93;;;17.70;;
19171;SDS011;9718;52.200;21.052;2022-10-31T14:18:28;32.03;;;16.83;;
19171;SDS011;9718;52.200;21.052;2022-10-31T14:20:57;36.17;;;18.33;;
19171;SDS011;9718;52.200;21.052;2022-10-31T14:28:58;34.50;;;18.10;;
19171;SDS011;9718;52.200;21.052;2022-10-31T14:31:52;32.63;;;18.30;;
19171;SDS011;9718;52.200;21.052;2022-10-31T14:39:50;33.00;;;17.67;;
19171;SDS011;9718;52.200;21.052;2022-10-31T14:42:41;36.43;;;19.03;;
19171;SDS011;9718;52.200;21.052;2022-10-31T14:47:49;35.37;;;18.53;;
19171;SDS011;9718;52.200;21.052;2022-10-31T14:50:47;33.47;;;18.40;;
19171;SDS011;9718;52.200;21.052;2022-10-31T14:55:57;32.73;;;17.40;;
19171;SDS011;9718;52.200;21.052;2022-10-31T14:58:37;30.80;;;16.10;;
19171;SDS011;9718;52.200;21.052;2022-10-31T15:01:07;37.43;;;17.90;;
19171;SDS011;9718;52.200;21.052;2022-10-31T15:03:36;36.27;;;16.57;;
19171;SDS011;9718;52.200;21.052;2022-10-31T15:06:18;38.33;;;17.80;;
19171;SDS011;9718;52.200;21.052;2022-10-31T15:09:04;38.00;;;18.17;;
19171;SDS011;9718;52.200;21.052;2022-10-31T15:11:45;37.37;;;17.37;;
19171;SDS011;9718;52.200;21.052;2022-10-31T15:14:47;41.03;;;18.10;;
19171;SDS011;9718;52.200;21.052;2022-10-31T15:18:16;40.03;;;18.70;;
19171;SDS011;9718;52.200;21.052;2022-10-31T15:21:01;40.13;;;17.80;;
19171;SDS011;9718;52.200;21.052;2022-10-31T15:23:47;48.00;;;18.77;;
19171;SDS011;9718;52.200;21.052;2022-10-31T15:26:32;45.40;;;20.13;;
19171;SDS011;9718;52.200;21.052;2022-10-31T15:29:33;46.97;;;20.03;;
19171;SDS011;9718;52.200;21.052;2022-10-31T15:32:35;49.37;;;21.77;;
19171;SDS011;9718;52.200;21.052;2022-10-31T15:35:58;44.97;;;21.07;;
19171;SDS011;9718;52.200;21.052;2022-10-31T15:38:41;48.53;;;21.53;;
19171;SDS011;9718;52.200;21.052;2022-10-31T15:44:51;47.73;;;21.30;;
19171;SDS011;9718;52.200;21.052;2022-10-31T15:50:55;47.97;;;22.97;;
19171;SDS011;9718;52.200;21.052;2022-10-31T15:53:42;55.23;;;24.23;;
19171;SDS011;9718;52.200;21.052;2022-10-31T15:56:47;52.67;;;23.37;;
19171;SDS011;9718;52.200;21.052;2022-10-31T16:00:30;50.50;;;23.23;;
19171;SDS011;9718;52.200;21.052;2022-10-31T16:06:04;62.80;;;24.83;;
19171;SDS011;9718;52.200;21.052;2022-10-31T16:09:20;58.60;;;25.00;;
19171;SDS011;9718;52.200;21.052;2022-10-31T16:12:44;56.10;;;25.20;;
19171;SDS011;9718;52.200;21.052;2022-10-31T16:16:12;55.13;;;25.60;;
19171;SDS011;9718;52.200;21.052;2022-10-31T16:19:20;62.77;;;25.43;;
19171;SDS011;9718;52.200;21.052;2022-10-31T16:22:06;57.77;;;25.33;;
19171;SDS011;9718;52.200;21.052;2022-10-31T16:27:59;59.73;;;25.37;;
19171;SDS011;9718;52.200;21.052;2022-10-31T16:31:35;49.27;;;23.43;;
19171;SDS011;9718;52.200;21.052;2022-10-31T16:34:58;59.17;;;23.43;;
19171;SDS011;9718;52.200;21.052;2022-10-31T16:37:40;56.57;;;23.63;;
19171;SDS011;9718;52.200;21.052;2022-10-31T16:40:23;51.20;;;22.03;;
19171;SDS011;9718;52.200;21.052;2022-10-31T16:43:09;56.60;;;22.40;;
19171;SDS011;9718;52.200;21.052;2022-10-31T16:46:15;48.90;;;22.20;;
19171;SDS011;9718;52.200;21.052;2022-10-31T16:49:36;51.87;;;22.20;;
19171;SDS011;9718;52.200;21.052;2022-10-31T16:52:18;62.10;;;23.93;;
19171;SDS011;9718;52.200;21.052;2022-10-31T16:55:00;58.53;;;22.53;;
19171;SDS011;9718;52.200;21.052;2022-10-31T16:58:02;58.27;;;22.80;;
19171;SDS011;9718;52.200;21.052;2022-10-31T17:01:24;53.23;;;21.57;;
19171;SDS011;9718;52.200;21.052;2022-10-31T17:04:46;56.87;;;23.53;;
19171;SDS011;9718;52.200;21.052;2022-10-31T17:07:57;51.30;;;23.20;;
19171;SDS011;9718;52.200;21.052;2022-10-31T17:10:41;51.67;;;24.07;;
19171;SDS011;9718;52.200;21.052;2022-10-31T17:13:25;55.80;;;23.20;;
19171;SDS011;9718;52.200;21.052;2022-10-31T17:16:27;58.17;;;24.60;;
19171;SDS011;9718;52.200;21.052;2022-10-31T17:19:49;62.80;;;24.47;;
19171;SDS011;9718;52.200;21.052;2022-10-31T17:22:31;63.87;;;25.63;;
19171;SDS011;9718;52.200;21.052;2022-10-31T17:25:17;61.37;;;25.20;;
19171;SDS011;9718;52.200;21.052;2022-10-31T17:28:19;72.77;;;25.37;;
19171;SDS011;9718;52.200;21.052;2022-10-31T17:31:43;70.10;;;26.83;;
19171;SDS011;9718;52.200;21.052;2022-10-31T17:35:05;76.00;;;25.90;;
19171;SDS011;9718;52.200;21.052;2022-10-31T17:38:07;76.93;;;25.90;;
19171;SDS011;9718;52.200;21.052;2022-10-31T17:40:51;76.63;;;25.73;;
19171;SDS011;9718;52.200;21.052;2022-10-31T17:43:33;65.00;;;25.47;;
19171;SDS011;9718;52.200;21.052;2022-10-31T17:46:35;77.67;;;28.17;;
19171;SDS011;9718;52.200;21.052;2022-10-31T19:25:09;87.50;;;28.03;;
19171;SDS011;9718;52.200;21.052;2022-10-31T19:27:51;98.63;;;28.53;;
19171;SDS011;9718;52.200;21.052;2022-10-31T19:30:33;80.97;;;29.30;;
19171;SDS011;9718;52.200;21.052;2022-10-31T19:33:35;97.63;;;29.63;;
19171;SDS011;9718;52.200;21.052;2022-10-31T19:36:57;111.83;;;33.97;;
19171;SDS011;9718;52.200;21.052;2022-10-31T19:39:38;103.70;;;31.93;;
19171;SDS011;9718;52.200;21.052;2022-10-31T19:42:24;117.47;;;34.70;;
19171;SDS011;9718;52.200;21.052;2022-10-31T19:45:26;106.30;;;33.97;;
19171;SDS011;9718;52.200;21.052;2022-10-31T19:49:08;116.30;;;34.67;;
19171;SDS011;9718;52.200;21.052;2022-10-31T19:51:53;124.13;;;36.03;;
19171;SDS011;9718;52.200;21.052;2022-10-31T19:54:57;110.97;;;34.13;;
19171;SDS011;9718;52.200;21.052;2022-10-31T19:57:38;137.53;;;36.57;;
19171;SDS011;9718;52.200;21.052;2022-10-31T20:00:52;132.40;;;35.53;;
19171;SDS011;9718;52.200;21.052;2022-10-31T20:03:54;120.20;;;34.27;;
19171;SDS011;9718;52.200;21.052;2022-10-31T20:07:26;124.07;;;35.67;;
19171;SDS011;9718;52.200;21.052;2022-10-31T20:10:23;139.73;;;36.70;;
19171;SDS011;9718;52.200;21.052;2022-10-31T20:13:05;134.33;;;36.57;;
19171;SDS011;9718;52.200;21.052;2022-10-31T20:15:47;123.60;;;35.00;;
19171;SDS011;9718;52.200;21.052;2022-10-31T20:18:50;108.40;;;33.27;;
19171;SDS011;9718;52.200;21.052;2022-10-31T20:21:52;117.60;;;34.83;;
19171;SDS011;9718;52.200;21.052;2022-10-31T20:25:14;107.07;;;35.33;;
19171;SDS011;9718;52.200;21.052;2022-10-31T20:28:41;115.83;;;34.57;;
19171;SDS011;9718;52.200;21.052;2022-10-31T20:31:47;112.47;;;35.23;;
19171;SDS011;9718;52.200;21.052;2022-10-31T20:34:29;106.80;;;34.03;;
19171;SDS011;9718;52.200;21.052;2022-10-31T20:37:30;105.87;;;33.00;;
19171;SDS011;9718;52.200;21.052;2022-10-31T20:40:12;122.53;;;36.03;;
19171;SDS011;9718;52.200;21.052;2022-10-31T20:42:54;103.40;;;34.10;;
19171;SDS011;9718;52.200;21.052;2022-10-31T20:45:37;97.80;;;33.47;;
19171;SDS011;9718;52.200;21.052;2022-10-31T20:48:53;111.63;;;34.57;;
19171;SDS011;9718;52.200;21.052;2022-10-31T20:51:55;111.23;;;33.43;;
19171;SDS011;9718;52.200;21.052;2022-10-31T20:55:16;112.67;;;34.50;;
19171;SDS011;9718;52.200;21.052;2022-10-31T20:57:58;113.47;;;33.67;;